createdAt,value
2022-10-20T00:02:37.204Z,99822.33
2022-10-20T00:05:53.702Z,99824.26
2022-10-20T00:09:12.064Z,99827.74
2022-10-20T00:12:28.439Z,99827.98
2022-10-20T00:15:45.929Z,99824.91
2022-10-20T00:19:02.917Z,99830.16
2022-10-20T00:22:19.109Z,99836.41
2022-10-20T00:25:35.189Z,99833.98
2022-10-20T00:28:51.706Z,99834.09
2022-10-20T00:35:23.187Z,99831.94
2022-10-20T00:38:39.802Z,99834.66
2022-10-20T00:41:56.011Z,99822.28
2022-10-20T00:45:18.716Z,99821.64
2022-10-20T00:48:38.296Z,99821.59
2022-10-20T00:51:55.571Z,99823.20
2022-10-20T00:55:14.599Z,99820.84
2022-10-20T00:58:32.046Z,99823.53
2022-10-20T01:01:49.649Z,99812.92
2022-10-20T01:05:06.824Z,99820.75
2022-10-20T01:08:23.056Z,99824.58
2022-10-20T01:11:46.531Z,99819.92
2022-10-20T01:15:10.830Z,99813.96
2022-10-20T01:18:31.910Z,99821.91
2022-10-20T01:22:17.174Z,99816.88
2022-10-20T01:25:41.083Z,99812.93
2022-10-20T01:29:01.437Z,99814.28
2022-10-20T01:32:24.297Z,99812.15
2022-10-20T01:35:54.074Z,99811.33
2022-10-20T01:39:14.694Z,99810.14
2022-10-20T01:45:55.043Z,99820.92
2022-10-20T01:49:13.413Z,99822.96
2022-10-20T01:52:33.185Z,99824.40
2022-10-20T01:55:50.465Z,99813.41
2022-10-20T01:59:32.328Z,99809.48
2022-10-20T02:03:18.845Z,99807.22
2022-10-20T02:06:46.924Z,99816.19
2022-10-20T02:10:08.336Z,99811.15
2022-10-20T02:13:26.363Z,99811.15
2022-10-20T02:16:46.461Z,99809.50
2022-10-20T02:20:04.613Z,99814.16
2022-10-20T02:23:22.735Z,99816.19
2022-10-20T02:26:40.662Z,99811.41
2022-10-20T02:30:01.670Z,99817.75
2022-10-20T02:33:19.311Z,99817.27
2022-10-20T02:36:39.799Z,99819.17
2022-10-20T02:39:56.214Z,99818.70
2022-10-20T02:43:12.240Z,99821.67
2022-10-20T02:46:28.519Z,99829.80
2022-10-20T02:49:45.979Z,99814.26
2022-10-20T02:53:01.984Z,99810.93
2022-10-20T02:56:20.294Z,99819.86
2022-10-20T02:59:36.424Z,99818.43
2022-10-20T03:02:53.151Z,99819.75
2022-10-20T03:06:17.013Z,99827.13
2022-10-20T03:09:33.055Z,99838.48
2022-10-20T03:12:50.813Z,99836.20
2022-10-20T03:16:07.279Z,99837.14
2022-10-20T03:19:25.863Z,99840.02
2022-10-20T03:22:41.870Z,99845.48
2022-10-20T03:25:58.285Z,99840.59
2022-10-20T03:29:14.429Z,99858.59
2022-10-20T03:32:30.532Z,99848.33
2022-10-20T03:35:46.748Z,99853.08
2022-10-20T03:39:02.810Z,99850.55
2022-10-20T03:42:19.119Z,99852.68
2022-10-20T03:45:35.638Z,99861.63
2022-10-20T03:48:51.818Z,99863.42
2022-10-20T03:52:07.821Z,99864.49
2022-10-20T03:55:25.085Z,99864.70
2022-10-20T03:58:41.369Z,99865.88
2022-10-20T04:01:57.708Z,99867.16
2022-10-20T04:08:29.257Z,99869.52
2022-10-20T04:11:45.501Z,99865.95
2022-10-20T04:15:01.754Z,99862.80
2022-10-20T04:18:17.896Z,99872.67
2022-10-20T04:21:34.596Z,99863.77
2022-10-20T04:24:51.193Z,99859.47
2022-10-20T04:28:08.420Z,99866.48
2022-10-20T04:31:25.299Z,99865.86
2022-10-20T04:34:41.602Z,99862.65
2022-10-20T04:37:57.556Z,99872.17
2022-10-20T04:41:15.493Z,99871.46
2022-10-20T04:44:33.927Z,99854.25
2022-10-20T04:47:50.032Z,99855.30
2022-10-20T04:51:18.131Z,99853.98
2022-10-20T04:54:34.322Z,99858.72
2022-10-20T04:57:50.453Z,99859.86
2022-10-20T05:01:11.206Z,99865.34
2022-10-20T05:04:27.372Z,99864.40
2022-10-20T05:07:43.464Z,99865.46
2022-10-20T05:10:59.419Z,99868.28
2022-10-20T05:14:15.634Z,99868.28
2022-10-20T05:17:34.385Z,99877.95
2022-10-20T05:21:08.877Z,99877.20
2022-10-20T05:24:29.151Z,99878.15
2022-10-20T05:27:42.721Z,99884.13
2022-10-20T05:31:01.388Z,99889.15
2022-10-20T05:34:17.806Z,99888.52
2022-10-20T05:37:34.031Z,99892.63
2022-10-20T05:41:01.992Z,99893.25
2022-10-20T05:44:20.434Z,99889.34
2022-10-20T05:47:37.642Z,99892.47
2022-10-20T05:50:53.669Z,99893.95
2022-10-20T05:54:11.756Z,99896.14
2022-10-20T05:57:27.930Z,99904.72
2022-10-20T06:00:46.270Z,99906.78
2022-10-20T06:04:05.634Z,99901.19
2022-10-20T06:07:22.087Z,99917.82
2022-10-20T06:10:38.241Z,99914.42
2022-10-20T06:13:54.768Z,99915.53
2022-10-20T06:17:11.378Z,99922.88
2022-10-20T06:20:27.886Z,99922.76
2022-10-20T06:23:44.560Z,99920.08
2022-10-20T06:27:00.803Z,99927.31
2022-10-20T06:30:21.513Z,99922.80
2022-10-20T06:33:39.676Z,99930.88
2022-10-20T06:36:56.771Z,99949.58
2022-10-20T06:40:15.728Z,99950.25
2022-10-20T06:43:32.680Z,99945.58
2022-10-20T06:46:51.450Z,99949.30
2022-10-20T06:50:08.030Z,99946.51
2022-10-20T06:53:25.152Z,99951.05
2022-10-20T06:56:43.408Z,99956.34
2022-10-20T06:59:59.511Z,99960.84
2022-10-20T07:03:15.588Z,99955.03
2022-10-20T07:06:33.705Z,99965.47
2022-10-20T07:09:50.228Z,99964.69
2022-10-20T07:13:08.678Z,99958.72
2022-10-20T07:16:27.771Z,99960.55
2022-10-20T07:19:43.793Z,99960.38
2022-10-20T07:23:01.290Z,99954.86
2022-10-20T07:26:20.135Z,99957.72
2022-10-20T07:29:36.214Z,99953.07
2022-10-20T07:32:52.452Z,99948.01
2022-10-20T07:36:11.361Z,99950.60
2022-10-20T07:39:27.432Z,99938.64
2022-10-20T07:42:49.916Z,99950.56
2022-10-20T07:46:06.201Z,99937.11
2022-10-20T07:52:37.895Z,99934.84
2022-10-20T07:55:54.494Z,99932.22
2022-10-20T07:59:11.423Z,99935.64
2022-10-20T08:02:29.984Z,99932.30
2022-10-20T08:05:46.361Z,99927.47
2022-10-20T08:09:02.802Z,99923.58
2022-10-20T08:12:19.046Z,99932.45
2022-10-20T08:15:35.525Z,99932.36
2022-10-20T08:22:25.201Z,99934.52
2022-10-20T08:25:41.484Z,99934.13
2022-10-20T08:28:58.827Z,99931.10
2022-10-20T08:32:15.707Z,99938.86
2022-10-20T08:35:32.596Z,99939.66
2022-10-20T08:38:52.555Z,99938.89
2022-10-20T08:46:03.769Z,99937.00
2022-10-20T08:49:24.947Z,99949.66
2022-10-20T08:52:41.838Z,99948.14
2022-10-20T08:55:59.608Z,99947.25
2022-10-20T08:59:34.765Z,99947.96
2022-10-20T09:02:51.258Z,99954.62
2022-10-20T09:06:13.838Z,99943.88
2022-10-20T09:09:32.128Z,99942.78
2022-10-20T09:12:53.248Z,99944.78
2022-10-20T09:16:27.162Z,99939.59
2022-10-20T09:19:34.562Z,99931.30
2022-10-20T09:22:54.644Z,99933.39
2022-10-20T09:26:19.630Z,99939.52
2022-10-20T09:29:32.240Z,99932.17
2022-10-20T09:32:48.618Z,99930.28
2022-10-20T09:36:10.974Z,99924.84
2022-10-20T09:39:39.496Z,99922.81
2022-10-20T09:43:00.741Z,99920.16
2022-10-20T09:46:23.104Z,99920.45
2022-10-20T09:49:42.915Z,99918.30
2022-10-20T09:53:00.589Z,99915.14
2022-10-20T09:56:17.482Z,99913.98
2022-10-20T09:59:37.983Z,99911.53
2022-10-20T10:02:54.286Z,99915.01
2022-10-20T10:06:14.195Z,99908.05
2022-10-20T10:09:40.286Z,99904.58
2022-10-20T10:16:25.763Z,99913.79
2022-10-20T10:19:43.223Z,99913.96
2022-10-20T10:23:05.338Z,99909.13
2022-10-20T10:26:55.801Z,99908.65
2022-10-20T10:30:35.336Z,99915.14
2022-10-20T10:33:51.796Z,99898.34
2022-10-20T10:37:08.459Z,99893.53
2022-10-20T10:40:27.697Z,99893.86
2022-10-20T10:43:49.840Z,99892.69
2022-10-20T10:47:13.376Z,99887.51
2022-10-20T10:50:39.070Z,99887.05
2022-10-20T10:54:19.400Z,99889.87
2022-10-20T10:57:45.172Z,99884.39
2022-10-20T11:01:06.717Z,99884.38
2022-10-20T11:04:45.369Z,99878.23
2022-10-20T11:08:11.874Z,99871.91
2022-10-20T11:11:51.080Z,99867.41
2022-10-20T11:15:20.081Z,99873.08
2022-10-20T11:19:15.237Z,99856.09
2022-10-20T11:22:42.881Z,99853.61
2022-10-20T11:26:09.250Z,99854.29
2022-10-20T11:29:34.307Z,99840.00
2022-10-20T11:32:55.436Z,99838.61
2022-10-20T11:36:16.956Z,99832.78
2022-10-20T11:39:39.571Z,99825.30
2022-10-20T11:43:04.956Z,99821.34
2022-10-20T11:46:27.537Z,99823.13
2022-10-20T11:49:45.777Z,99817.78
2022-10-20T11:53:35.835Z,99804.66
2022-10-20T11:57:15.065Z,99805.14
2022-10-20T12:01:01.024Z,99795.98
2022-10-20T12:05:12.016Z,99797.95
2022-10-20T12:08:53.247Z,99796.28
2022-10-20T12:12:14.528Z,99789.44
2022-10-20T12:15:33.293Z,99780.44
2022-10-20T12:18:53.021Z,99783.25
2022-10-20T12:22:12.447Z,99778.93
2022-10-20T12:25:47.051Z,99778.75
2022-10-20T12:29:04.121Z,99767.56
2022-10-20T12:33:05.128Z,99759.61
2022-10-20T12:36:45.554Z,99764.23
2022-10-20T12:40:05.161Z,99762.27
2022-10-20T12:43:46.524Z,99759.30
2022-10-20T12:47:10.968Z,99755.45
2022-10-20T12:50:35.745Z,99755.97
2022-10-20T12:53:58.377Z,99750.14
2022-10-20T12:57:36.262Z,99742.19
2022-10-20T13:01:21.047Z,99749.63
2022-10-20T13:05:04.727Z,99743.17
2022-10-20T13:08:34.017Z,99745.99
2022-10-20T13:12:07.270Z,99748.64
2022-10-20T13:15:28.610Z,99748.94
2022-10-20T13:18:50.502Z,99740.33
2022-10-20T13:22:10.325Z,99739.65
2022-10-20T13:25:51.609Z,99740.98
2022-10-20T13:29:09.951Z,99740.50
2022-10-20T13:32:30.880Z,99741.48
2022-10-20T13:35:52.796Z,99731.51
2022-10-20T13:39:13.365Z,99730.82
2022-10-20T13:42:56.673Z,99725.73
2022-10-20T13:46:26.398Z,99717.44
2022-10-20T13:49:59.342Z,99713.80
2022-10-20T13:53:23.793Z,99720.91
2022-10-20T13:56:47.503Z,99715.13
2022-10-20T14:00:11.636Z,99711.08
2022-10-20T14:03:28.261Z,99709.77
2022-10-20T14:06:46.096Z,99709.41
2022-10-20T14:10:08.006Z,99704.25
2022-10-20T14:13:29.044Z,99701.11
2022-10-20T14:16:45.505Z,99702.09
2022-10-20T14:20:20.981Z,99702.09
2022-10-20T14:23:40.902Z,99706.41
2022-10-20T14:30:22.156Z,99702.23
2022-10-20T14:33:56.924Z,99691.75
2022-10-20T14:37:23.218Z,99695.72
2022-10-20T14:40:41.922Z,99695.03
2022-10-20T14:44:06.799Z,99686.73
2022-10-20T14:47:32.368Z,99690.69
2022-10-20T14:50:48.532Z,99687.68
2022-10-20T14:54:37.207Z,99683.66
2022-10-20T14:57:54.838Z,99682.32
2022-10-20T15:01:32.895Z,99682.78
2022-10-20T15:04:52.704Z,99680.45
2022-10-20T15:08:21.665Z,99672.67
2022-10-20T15:11:38.165Z,99672.44
2022-10-20T15:14:57.349Z,99660.66
2022-10-20T15:18:25.634Z,99657.66
2022-10-20T15:21:42.290Z,99650.98
2022-10-20T15:24:58.863Z,99665.20
2022-10-20T15:28:24.161Z,99657.88
2022-10-20T15:31:40.648Z,99648.91
2022-10-20T15:34:56.960Z,99647.70
2022-10-20T15:38:13.885Z,99638.56
2022-10-20T15:41:33.145Z,99633.89
2022-10-20T15:44:49.482Z,99629.86
2022-10-20T15:48:05.899Z,99635.77
2022-10-20T15:51:27.841Z,99630.95
2022-10-20T15:54:44.074Z,99629.89
2022-10-20T15:58:02.470Z,99632.61
2022-10-20T16:01:19.885Z,99631.39
2022-10-20T16:04:36.561Z,99630.20
2022-10-20T16:07:53.853Z,99628.31
2022-10-20T16:11:10.482Z,99624.44
2022-10-20T16:14:28.988Z,99623.52
2022-10-20T16:17:46.315Z,99624.81
2022-10-20T16:21:06.004Z,99626.23
2022-10-20T16:24:23.725Z,99639.38
2022-10-20T16:27:41.429Z,99637.45
2022-10-20T16:31:08.211Z,99642.47
2022-10-20T16:34:27.600Z,99650.41
2022-10-20T16:37:44.833Z,99641.23
2022-10-20T16:41:12.736Z,99650.33
2022-10-20T16:44:33.109Z,99655.69
2022-10-20T16:47:49.539Z,99652.09
2022-10-20T16:51:05.874Z,99648.91
2022-10-20T16:54:28.608Z,99642.53
2022-10-20T16:57:56.440Z,99650.45
2022-10-20T17:04:32.355Z,99648.66
2022-10-20T17:07:57.573Z,99646.59
2022-10-20T17:11:27.515Z,99635.52
2022-10-20T17:14:43.862Z,99640.92
2022-10-20T17:18:00.304Z,99634.02
2022-10-20T17:21:18.973Z,99635.95
2022-10-20T17:24:35.643Z,99632.20
2022-10-20T17:27:51.976Z,99644.99
2022-10-20T17:31:13.085Z,99647.08
2022-10-20T17:34:29.549Z,99647.63
2022-10-20T17:37:46.047Z,99646.11
2022-10-20T17:41:05.669Z,99649.18
2022-10-20T17:44:25.339Z,99641.26
2022-10-20T17:47:42.804Z,99641.81
2022-10-20T17:51:09.100Z,99640.39
2022-10-20T17:54:25.852Z,99632.20
2022-10-20T17:57:42.514Z,99630.52
2022-10-20T18:00:59.111Z,99635.52
2022-10-20T18:04:18.356Z,99625.80
2022-10-20T18:07:37.298Z,99626.59
2022-10-20T18:10:54.514Z,99617.98
2022-10-20T18:14:11.631Z,99614.88
2022-10-20T18:17:28.258Z,99617.09
2022-10-20T18:20:45.046Z,99617.63
2022-10-20T18:24:07.380Z,99610.96
2022-10-20T18:27:24.237Z,99612.45
2022-10-20T18:30:46.895Z,99615.94
2022-10-20T18:34:07.521Z,99618.00
2022-10-20T18:37:24.500Z,99609.25
2022-10-20T18:40:41.870Z,99615.48
2022-10-20T18:44:02.179Z,99610.49
2022-10-20T18:47:22.578Z,99606.68
2022-10-20T18:50:44.967Z,99614.86
2022-10-20T18:54:24.084Z,99606.05
2022-10-20T18:57:49.330Z,99600.11
2022-10-20T19:01:17.080Z,99592.87
2022-10-20T19:04:37.529Z,99589.19
2022-10-20T19:07:56.091Z,99589.74
2022-10-20T19:11:15.123Z,99589.16
2022-10-20T19:14:32.118Z,99584.28
2022-10-20T19:17:50.014Z,99588.52
2022-10-20T19:21:09.178Z,99574.20
2022-10-20T19:24:28.342Z,99580.42
2022-10-20T19:27:44.793Z,99575.88
2022-10-20T19:31:01.529Z,99577.48
2022-10-20T19:34:21.530Z,99580.94
2022-10-20T19:37:38.129Z,99582.41
2022-10-20T19:40:56.250Z,99583.26
2022-10-20T19:44:13.389Z,99586.63
2022-10-20T19:47:29.788Z,99592.10
2022-10-20T19:50:46.250Z,99587.56
2022-10-20T19:54:02.818Z,99583.50
2022-10-20T19:57:19.242Z,99581.64
2022-10-20T20:00:35.972Z,99581.64
2022-10-20T20:03:56.140Z,99583.31
2022-10-20T20:10:38.249Z,99567.83
2022-10-20T20:13:54.688Z,99571.77
2022-10-20T20:17:11.499Z,99569.10
2022-10-20T20:20:28.740Z,99562.67
2022-10-20T20:23:58.768Z,99561.35
2022-10-20T20:27:06.776Z,99559.33
2022-10-20T20:30:23.634Z,99558.05
2022-10-20T20:33:42.207Z,99552.92
2022-10-20T20:36:58.745Z,99557.69
2022-10-20T20:40:18.989Z,99557.33
2022-10-20T20:43:35.824Z,99558.73
2022-10-20T20:46:52.062Z,99557.09
2022-10-20T20:50:08.454Z,99537.39
2022-10-20T20:53:25.106Z,99541.23
2022-10-20T20:56:42.041Z,99539.42
2022-10-20T20:59:58.745Z,99536.21
2022-10-20T21:03:15.355Z,99533.88
2022-10-20T21:06:49.509Z,99530.66
2022-10-20T21:09:50.738Z,99541.07
2022-10-20T21:13:07.205Z,99545.64
2022-10-20T21:16:26.486Z,99536.34
2022-10-20T21:19:43.223Z,99524.88
2022-10-20T21:22:59.668Z,99510.59
2022-10-20T21:26:17.434Z,99512.48
2022-10-20T21:29:33.992Z,99509.52
2022-10-20T21:32:50.195Z,99511.66
2022-10-20T21:36:11.812Z,99500.43
2022-10-20T21:39:28.019Z,99503.05
2022-10-20T21:42:44.268Z,99498.27
2022-10-20T21:46:00.519Z,99491.34
2022-10-20T21:49:20.386Z,99494.23
2022-10-20T21:52:39.657Z,99492.80
2022-10-20T21:55:55.997Z,99492.45
2022-10-20T21:59:13.811Z,99484.59
2022-10-20T22:02:30.210Z,99478.27
2022-10-20T22:05:47.278Z,99475.39
2022-10-20T22:09:06.004Z,99476.81
2022-10-20T22:12:22.561Z,99467.17
2022-10-20T22:15:42.282Z,99464.30
2022-10-20T22:18:56.086Z,99466.22
2022-10-20T22:22:12.046Z,99467.66
2022-10-20T22:25:28.160Z,99468.50
2022-10-20T22:28:44.414Z,99469.80
2022-10-20T22:32:03.013Z,99463.01
2022-10-20T22:35:19.780Z,99459.30
2022-10-20T22:38:42.346Z,99459.51
2022-10-20T22:41:58.427Z,99454.03
2022-10-20T22:45:17.855Z,99444.03
2022-10-20T22:48:32.201Z,99442.84
2022-10-20T22:51:50.919Z,99441.16
2022-10-20T22:55:07.453Z,99432.57
2022-10-20T22:58:30.188Z,99442.22
2022-10-20T23:01:46.540Z,99439.86
2022-10-20T23:05:02.796Z,99451.30
2022-10-20T23:08:19.020Z,99447.47
2022-10-20T23:11:36.213Z,99436.05
2022-10-20T23:14:52.477Z,99437.81
2022-10-20T23:18:08.958Z,99439.61
2022-10-20T23:21:25.531Z,99437.72
2022-10-20T23:24:43.722Z,99433.64
2022-10-20T23:28:00.987Z,99445.10
2022-10-20T23:31:20.625Z,99430.45
2022-10-20T23:34:37.029Z,99427.70
2022-10-20T23:37:53.730Z,99427.22
2022-10-20T23:41:10.631Z,99432.08
2022-10-20T23:44:26.747Z,99430.29
2022-10-20T23:47:44.308Z,99421.80
2022-10-20T23:51:00.604Z,99425.09
2022-10-20T23:54:16.773Z,99408.52
2022-10-20T23:57:32.950Z,99414.53
